Time;durP1;ratioP1;P1;durP2;ratioP2;P2;SDS_P1;SDS_P2;PMS_P1;PMS_P2;Temp;Humidity;BMP_temperature;BMP_pressure;BME280_temperature;BME280_humidity;BME280_pressure;Samples;Min_cycle;Max_cycle;Signal;HPM_P1;HPM_P2
2021/11/03 00:01:19;;;;;;;11.35;6.17;;;;;;;11.12;65.67;98382.94;1836984;77;21048;-81
2021/11/03 00:03:48;;;;;;;13.40;7.50;;;;;;;11.13;66.26;98392.00;1853389;77;20997;-81
2021/11/03 00:06:21;;;;;;;12.10;7.12;;;;;;;11.12;66.00;98402.02;1834858;77;21490;-81
2021/11/03 00:08:49;;;;;;;14.63;7.20;;;;;;;11.13;66.11;98405.47;1844083;77;21009;-80
2021/11/03 00:11:16;;;;;;;12.75;7.40;;;;;;;11.12;65.63;98401.16;1842383;77;21052;-77
2021/11/03 00:13:43;;;;;;;13.40;7.60;;;;;;;11.12;65.63;98404.62;1855654;77;20997;-78
2021/11/03 00:16:10;;;;;;;17.40;7.40;;;;;;;11.09;65.54;98407.79;1801898;78;21049;-79
2021/11/03 00:18:37;;;;;;;12.23;6.72;;;;;;;11.09;65.17;98407.79;1816832;77;21002;-80
2021/11/03 00:21:06;;;;;;;11.73;7.42;;;;;;;11.07;65.23;98412.20;1841257;77;21030;-80
2021/11/03 00:23:33;;;;;;;13.75;7.45;;;;;;;11.01;65.48;98421.08;1830151;77;21032;-78
2021/11/03 00:25:59;;;;;;;12.33;6.83;;;;;;;10.99;65.29;98418.16;1850380;77;21042;-80
2021/11/03 00:28:28;;;;;;;13.83;6.47;;;;;;;10.97;65.44;98426.47;1835459;76;21541;-79
2021/11/03 00:30:58;;;;;;;12.73;6.50;;;;;;;10.94;65.53;98438.68;1855808;77;20970;-80
2021/11/03 00:33:28;;;;;;;11.90;6.33;;;;;;;10.90;66.22;98441.00;1836688;77;21061;-80
2021/11/03 00:35:55;;;;;;;11.15;6.53;;;;;;;10.88;66.19;98450.61;1844577;77;21037;-80
2021/11/03 00:38:23;;;;;;;13.22;7.30;;;;;;;10.92;66.38;98461.72;1837076;77;20975;-80
2021/11/03 00:40:51;;;;;;;10.08;6.45;;;;;;;10.91;66.16;98460.05;1861645;77;20994;-80
2021/11/03 00:43:19;;;;;;;15.53;8.20;;;;;;;10.93;65.54;98473.84;1840588;77;21034;-80
2021/11/03 00:45:46;;;;;;;14.75;8.28;;;;;;;10.91;65.66;98479.55;1778742;80;21062;-78
2021/11/03 00:48:14;;;;;;;13.40;6.65;;;;;;;10.87;65.80;98479.27;1762796;80;20996;-80
2021/11/03 00:50:42;;;;;;;11.73;7.10;;;;;;;10.83;65.62;98481.12;1791519;79;21033;-80
2021/11/03 00:53:09;;;;;;;10.65;6.58;;;;;;;10.83;65.50;98489.38;1767163;81;21043;-81
2021/11/03 00:55:36;;;;;;;14.00;7.83;;;;;;;10.82;65.16;98501.97;1756165;81;21016;-81
2021/11/03 00:58:03;;;;;;;13.38;7.12;;;;;;;10.77;65.43;98501.30;1777303;80;20991;-81
2021/11/03 01:00:30;;;;;;;12.10;6.87;;;;;;;10.73;65.48;98499.26;1763530;80;21035;-79
2021/11/03 01:02:57;;;;;;;13.55;7.00;;;;;;;10.69;65.23;98502.41;1778755;80;21025;-81
2021/11/03 01:05:26;;;;;;;12.23;6.50;;;;;;;10.65;65.72;98506.48;1770923;80;20999;-81
2021/11/03 01:07:53;;;;;;;10.53;6.15;;;;;;;10.60;65.27;98502.72;1748267;80;21007;-80
2021/11/03 01:10:24;;;;;;;11.00;6.12;;;;;;;10.58;65.08;98504.52;1759285;80;21054;-81
2021/11/03 01:12:52;;;;;;;12.47;6.10;;;;;;;10.58;64.74;98511.48;1752158;80;21558;-80
2021/11/03 01:15:23;;;;;;;11.53;6.42;;;;;;;10.54;65.00;98516.80;1755598;80;21063;-80
2021/11/03 01:17:54;;;;;;;11.75;6.70;;;;;;;10.51;65.11;98522.09;1778222;79;21059;-81
2021/11/03 01:20:21;;;;;;;18.07;9.50;;;;;;;10.49;65.12;98523.89;1784919;79;21014;-80
2021/11/03 01:22:48;;;;;;;19.65;9.80;;;;;;;10.42;66.86;98530.19;1799387;79;20993;-80
2021/11/03 01:25:16;;;;;;;21.37;11.15;;;;;;;10.31;67.55;98541.41;1788197;79;21463;-80
2021/11/03 01:27:42;;;;;;;21.17;10.93;;;;;;;10.19;69.60;98546.97;1788885;79;20943;-80
2021/11/03 01:30:13;;;;;;;23.27;11.20;;;;;;;10.09;68.84;98545.95;1779764;79;21696;-80
2021/11/03 01:32:40;;;;;;;26.87;12.60;;;;;;;10.02;69.33;98562.62;1777314;79;21141;-80
2021/11/03 01:35:09;;;;;;;24.07;11.33;;;;;;;9.89;69.82;98548.34;1777530;79;21093;-80
2021/11/03 01:37:36;;;;;;;28.45;13.05;;;;;;;9.88;70.87;98563.05;1804921;79;21010;-80
2021/11/03 01:40:08;;;;;;;28.27;13.15;;;;;;;9.82;71.10;98565.83;1778483;79;21018;-79
2021/11/03 01:42:36;;;;;;;22.10;11.95;;;;;;;9.79;70.13;98558.58;1783423;79;21005;-80
2021/11/03 01:45:07;;;;;;;21.80;12.18;;;;;;;9.78;70.65;98565.98;1794867;79;20964;-80
2021/11/03 01:47:47;;;;;;;21.55;11.60;;;;;;;9.76;71.34;98558.23;1799810;79;21034;-80
2021/11/03 01:50:33;;;;;;;22.10;11.18;;;;;;;9.74;70.39;98561.33;1791683;79;21331;-80
2021/11/03 01:53:08;;;;;;;24.60;12.10;;;;;;;9.70;71.21;98568.34;1788196;79;20946;-79
2021/11/03 01:55:39;;;;;;;24.87;12.80;;;;;;;9.67;71.17;98568.88;1805385;79;20978;-80
2021/11/03 01:58:10;;;;;;;25.65;12.37;;;;;;;9.59;71.25;98575.63;1781460;79;20947;-80
2021/11/03 02:00:42;;;;;;;23.73;12.28;;;;;;;9.51;69.94;98577.56;1799649;79;21065;-80
2021/11/03 02:03:14;;;;;;;30.60;12.68;;;;;;;9.45;69.42;98589.42;1774154;80;21043;-80
2021/11/03 02:05:45;;;;;;;;;;;;;;;9.37;69.52;98589.66;1755677;80;21086;-80
2021/11/03 02:08:12;;;;;;;20.00;10.40;;;;;;;9.25;72.11;98584.37;1782099;80;20530;-80
2021/11/03 02:10:39;;;;;;;22.42;10.28;;;;;;;9.17;69.73;98579.81;1790627;80;21467;-80
2021/11/03 02:13:11;;;;;;;22.85;10.05;;;;;;;9.10;70.87;98589.97;1778642;80;21471;-79
2021/11/03 02:15:40;;;;;;;24.37;11.68;;;;;;;9.05;70.43;98594.42;1782062;80;21003;-80
2021/11/03 02:18:12;;;;;;;22.17;10.55;;;;;;;9.01;70.16;98605.77;1779045;79;20970;-78
2021/11/03 02:20:42;;;;;;;27.05;10.65;;;;;;;8.93;71.42;98589.98;1798417;79;21467;-79
2021/11/03 02:23:40;;;;;;;21.60;10.85;;;;;;;8.88;71.12;98593.59;1786191;79;20983;-78
2021/11/03 02:26:24;;;;;;;25.40;11.38;;;;;;;8.82;71.56;98594.59;1802371;79;21002;-79
2021/11/03 02:28:51;;;;;;;;;;;;;;;8.79;72.57;98608.07;1788449;79;20994;-80
2021/11/03 02:31:38;;;;;;;22.02;11.08;;;;;;;8.72;72.84;98609.98;1800697;79;20484;-80
2021/11/03 02:34:08;;;;;;;25.48;11.55;;;;;;;8.69;72.82;98612.18;1788083;79;21074;-79
2021/11/03 02:37:00;;;;;;;23.98;11.48;;;;;;;8.64;72.67;98623.13;1802078;79;20981;-80
2021/11/03 02:39:48;;;;;;;32.13;11.50;;;;;;;8.61;72.48;98624.94;1791518;79;21311;-80
2021/11/03 02:42:16;;;;;;;29.92;12.75;;;;;;;8.56;71.95;98623.31;1808098;79;20970;-80
2021/11/03 02:44:46;;;;;;;28.17;13.18;;;;;;;8.52;72.00;98632.50;1780275;79;21039;-78
2021/11/03 02:47:14;;;;;;;28.80;13.03;;;;;;;8.47;72.58;98637.77;1802649;79;20993;-80
2021/11/03 02:49:41;;;;;;;29.92;13.95;;;;;;;8.41;72.45;98642.22;1774401;79;21015;-78
2021/11/03 02:52:16;;;;;;;33.15;16.00;;;;;;;8.32;74.20;98638.13;1800907;79;20985;-80
2021/11/03 02:54:43;;;;;;;31.25;15.28;;;;;;;8.21;73.01;98649.16;1793590;79;21031;-79
2021/11/03 02:57:10;;;;;;;27.40;13.90;;;;;;;8.11;72.63;98651.09;1800369;79;20990;-79
2021/11/03 02:59:37;;;;;;;30.00;14.85;;;;;;;8.03;74.87;98651.71;1762411;80;21554;-80
2021/11/03 03:02:05;;;;;;;29.82;12.18;;;;;;;7.94;75.52;98657.95;1796161;79;20998;-78
2021/11/03 03:04:40;;;;;;;28.23;12.63;;;;;;;7.86;75.59;98659.83;1798729;79;21487;-80
2021/11/03 03:07:09;;;;;;;27.65;12.65;;;;;;;7.78;74.14;98669.06;1783572;79;21011;-80
2021/11/03 03:09:35;;;;;;;27.17;12.45;;;;;;;7.70;75.35;98675.69;1796735;79;21010;-80
2021/11/03 03:12:06;;;;;;;30.88;13.03;;;;;;;7.66;75.24;98669.30;1782595;79;21030;-80
2021/11/03 03:14:39;;;;;;;28.92;12.30;;;;;;;7.60;75.47;98678.05;1786698;80;21523;-79
2021/11/03 03:17:10;;;;;;;26.15;12.05;;;;;;;7.57;76.84;98674.22;1774009;80;21058;-79
2021/11/03 03:19:37;;;;;;;24.77;12.37;;;;;;;7.56;75.55;98671.23;1789736;79;21027;-80
2021/11/03 03:22:04;;;;;;;29.27;12.88;;;;;;;7.53;78.20;98681.19;1774098;79;21006;-79
2021/11/03 03:24:31;;;;;;;29.20;12.70;;;;;;;7.53;76.68;98685.52;1773448;79;20962;-78
2021/11/03 03:26:57;;;;;;;27.17;13.13;;;;;;;7.54;77.24;98688.49;1780982;79;21062;-80
2021/11/03 03:29:25;;;;;;;30.43;13.55;;;;;;;7.55;77.04;98688.47;1798906;79;20994;-77
2021/11/03 03:31:52;;;;;;;30.60;13.22;;;;;;;7.59;77.99;98692.30;1775659;80;20983;-79
2021/11/03 03:34:23;;;;;;;31.73;13.98;;;;;;;7.57;78.48;98686.70;1778741;79;21030;-79
2021/11/03 03:36:52;;;;;;;28.10;12.80;;;;;;;7.61;78.48;98687.95;1784301;78;20987;-79
2021/11/03 03:39:22;;;;;;;28.25;12.68;;;;;;;7.61;76.95;98691.39;1794491;79;21037;-79
2021/11/03 03:41:57;;;;;;;33.15;14.43;;;;;;;7.64;80.10;98695.22;1785690;78;21002;-79
2021/11/03 03:44:25;;;;;;;26.50;12.85;;;;;;;7.66;79.94;98694.75;1760063;81;21051;-79
2021/11/03 03:46:53;;;;;;;29.70;14.98;;;;;;;7.68;79.48;98692.98;1772904;78;21026;-79
2021/11/03 03:49:21;;;;;;;34.75;16.70;;;;;;;7.68;79.89;98702.45;1765682;78;20969;-80
2021/11/03 03:51:48;;;;;;;30.45;15.05;;;;;;;7.67;80.10;98701.61;1771816;78;20983;-80
2021/11/03 03:54:15;;;;;;;30.00;14.65;;;;;;;7.63;80.47;98703.84;1758841;81;21000;-81
2021/11/03 03:56:42;;;;;;;26.85;13.48;;;;;;;7.60;80.48;98701.75;1779139;78;21510;-79
2021/11/03 03:59:09;;;;;;;32.13;13.13;;;;;;;7.57;79.73;98700.09;1763536;81;21146;-80
2021/11/03 04:01:37;;;;;;;32.17;13.75;;;;;;;7.55;78.71;98694.94;1722097;81;20980;-79
2021/11/03 04:04:08;;;;;;;29.98;13.58;;;;;;;7.49;80.91;98689.89;1747264;81;21476;-80
2021/11/03 04:06:35;;;;;;;31.95;14.10;;;;;;;7.45;80.93;98692.56;1744386;81;21012;-80
2021/11/03 04:09:05;;;;;;;26.82;11.65;;;;;;;7.42;81.18;98692.61;1765838;78;20986;-78
2021/11/03 04:11:33;;;;;;;29.98;13.80;;;;;;;7.40;81.01;98685.33;1763596;79;21028;-80
2021/11/03 04:14:01;;;;;;;30.68;13.62;;;;;;;7.40;80.13;98687.49;1776312;78;20927;-79
2021/11/03 04:16:28;;;;;;;30.52;12.90;;;;;;;7.41;80.83;98689.63;1768671;79;20998;-80
2021/11/03 04:18:55;;;;;;;27.45;12.53;;;;;;;7.40;81.21;98682.73;1773123;80;20992;-80
2021/11/03 04:21:21;;;;;;;25.97;11.53;;;;;;;7.42;81.19;98680.97;1773689;80;20988;-79
2021/11/03 04:23:48;;;;;;;28.98;13.55;;;;;;;7.41;81.63;98673.66;1779839;80;21578;-80
2021/11/03 04:26:29;;;;;;;29.85;13.08;;;;;;;7.42;81.02;98684.44;1773938;80;21012;-79
2021/11/03 04:28:57;;;;;;;31.27;13.20;;;;;;;7.44;79.86;98683.97;1775762;80;20987;-80
2021/11/03 04:31:25;;;;;;;28.65;12.82;;;;;;;7.46;79.47;98682.20;1767426;80;21063;-79
2021/11/03 04:33:53;;;;;;;29.70;13.32;;;;;;;7.47;80.23;98684.34;1781446;80;21134;-80
2021/11/03 04:36:22;;;;;;;29.35;13.35;;;;;;;7.50;80.11;98690.73;1781018;80;21015;-79
2021/11/03 04:38:54;;;;;;;32.13;14.23;;;;;;;7.54;80.38;98689.37;1784396;80;21015;-80
2021/11/03 04:41:21;;;;;;;37.05;16.75;;;;;;;7.58;79.96;98704.40;1761120;80;21008;-79
2021/11/03 04:43:50;;;;;;;35.78;17.32;;;;;;;7.60;79.79;98703.92;1764362;80;21015;-79
2021/11/03 04:46:18;;;;;;;34.05;16.60;;;;;;;7.61;79.18;98709.50;1772523;80;21007;-80
2021/11/03 04:48:47;;;;;;;36.48;16.15;;;;;;;7.61;78.73;98711.23;1786003;80;21503;-81
2021/11/03 04:51:15;;;;;;;31.45;14.07;;;;;;;7.55;78.72;98714.79;1759181;80;21349;-80
2021/11/03 04:53:42;;;;;;;33.53;14.70;;;;;;;7.51;77.97;98717.02;1783793;80;20986;-81
2021/11/03 04:56:11;;;;;;;29.67;14.78;;;;;;;7.44;79.04;98724.47;1779330;80;20986;-79
2021/11/03 04:58:40;;;;;;;34.95;14.93;;;;;;;7.37;78.58;98725.03;1792401;80;21021;-79
2021/11/03 05:01:07;;;;;;;35.95;14.35;;;;;;;7.29;78.68;98739.84;1777359;80;21008;-80
2021/11/03 05:03:34;;;;;;;29.45;13.80;;;;;;;7.22;79.64;98742.11;1782151;80;20970;-80
2021/11/03 05:06:02;;;;;;;32.23;15.45;;;;;;;7.15;78.66;98747.38;1758100;80;20991;-81
2021/11/03 05:08:30;;;;;;;30.08;14.20;;;;;;;7.09;78.80;98743.61;1799115;78;21028;-80
2021/11/03 05:10:57;;;;;;;28.02;11.15;;;;;;;7.03;78.40;98750.17;1793338;78;21541;-80
2021/11/03 05:13:24;;;;;;;32.08;12.55;;;;;;;6.95;78.97;98746.42;1783523;79;20962;-80
2021/11/03 05:15:52;;;;;;;27.62;12.45;;;;;;;6.92;78.28;98754.65;1797303;79;22122;-80
2021/11/03 05:18:19;;;;;;;31.07;13.15;;;;;;;6.89;78.47;98755.56;1756731;80;21646;-80
2021/11/03 05:20:46;;;;;;;33.58;14.20;;;;;;;6.90;79.14;98749.53;1774123;80;21549;-80
2021/11/03 05:23:13;;;;;;;29.48;12.90;;;;;;;6.95;81.27;98754.17;1795759;78;20967;-79
2021/11/03 05:25:40;;;;;;;29.80;13.55;;;;;;;7.06;81.73;98751.84;1806708;78;21073;-80
2021/11/03 05:28:06;;;;;;;37.40;15.48;;;;;;;7.19;82.48;98770.16;1785426;78;20996;-80
2021/11/03 05:30:33;;;;;;;40.95;17.05;;;;;;;7.27;81.51;98766.16;1811127;78;20987;-79
2021/11/03 05:33:00;;;;;;;30.00;13.83;;;;;;;7.36;82.09;98764.27;1790124;78;21114;-80
2021/11/03 05:35:27;;;;;;;29.42;13.38;;;;;;;7.44;80.81;98769.31;1807819;78;20984;-80
2021/11/03 05:37:53;;;;;;;28.05;13.53;;;;;;;7.56;81.62;98783.77;1800708;78;20971;-80
2021/11/03 05:40:24;;;;;;;31.85;13.88;;;;;;;7.65;80.63;98786.17;1799789;79;21506;-79
2021/11/03 05:42:51;;;;;;;29.82;13.58;;;;;;;7.69;80.98;98797.33;1791829;78;20998;-80
2021/11/03 05:45:18;;;;;;;32.48;15.50;;;;;;;7.80;81.30;98791.94;1808176;78;21498;-80
2021/11/03 05:47:45;;;;;;;31.70;15.88;;;;;;;7.86;80.68;98799.17;1807999;78;20979;-81
2021/11/03 05:50:17;;;;;;;31.33;14.98;;;;;;;7.91;79.98;98809.42;1789005;78;20990;-79
2021/11/03 05:52:44;;;;;;;31.05;14.47;;;;;;;7.92;79.80;98812.44;1792221;78;20954;-81
2021/11/03 05:55:11;;;;;;;33.28;15.65;;;;;;;7.90;79.37;98811.17;1774004;78;21011;-79
2021/11/03 05:57:40;;;;;;;33.13;15.55;;;;;;;7.87;79.40;98811.21;1776156;80;21042;-80
2021/11/03 06:00:12;;;;;;;29.80;13.43;;;;;;;7.86;79.36;98810.81;1802099;78;20979;-80
2021/11/03 06:02:39;;;;;;;32.73;13.65;;;;;;;7.82;79.73;98818.22;1798111;78;21030;-80
2021/11/03 06:05:06;;;;;;;30.62;14.50;;;;;;;7.81;79.56;98822.13;1808267;79;21024;-80
2021/11/03 06:07:33;;;;;;;30.70;13.15;;;;;;;7.82;79.24;98830.28;1798488;79;20963;-80
2021/11/03 06:10:04;;;;;;;31.12;14.13;;;;;;;7.83;78.79;98834.15;1790921;78;20951;-80
2021/11/03 06:12:32;;;;;;;33.70;14.18;;;;;;;7.84;79.64;98836.29;1812451;78;21058;-80
2021/11/03 06:14:59;;;;;;;37.63;14.60;;;;;;;7.86;79.06;98838.41;1788472;78;21022;-80
2021/11/03 06:17:25;;;;;;;31.50;13.50;;;;;;;7.87;79.35;98839.68;1800253;78;20982;-80
2021/11/03 06:19:52;;;;;;;29.57;14.90;;;;;;;7.89;78.70;98824.97;1787171;78;21002;-81
2021/11/03 06:22:18;;;;;;;31.05;13.68;;;;;;;7.92;79.29;98826.23;1805831;78;21097;-80
2021/11/03 06:24:47;;;;;;;33.55;13.85;;;;;;;7.97;79.11;98835.19;1810535;78;21015;-80
2021/11/03 06:27:14;;;;;;;29.80;12.88;;;;;;;8.01;78.70;98836.84;1824164;78;21035;-80
2021/11/03 06:29:41;;;;;;;30.20;12.70;;;;;;;8.06;79.00;98845.39;1804171;78;21007;-80
2021/11/03 06:32:08;;;;;;;35.03;14.78;;;;;;;8.10;78.89;98852.66;1772827;79;21004;-80
2021/11/03 06:34:35;;;;;;;30.00;13.75;;;;;;;8.13;79.15;98854.72;1777711;80;21048;-79
2021/11/03 06:37:01;;;;;;;32.42;13.68;;;;;;;8.20;78.75;98859.78;1772592;80;21033;-80
2021/11/03 06:39:27;;;;;;;31.40;14.23;;;;;;;8.26;78.98;98858.40;1785969;80;21016;-80
2021/11/03 06:41:54;;;;;;;34.15;15.60;;;;;;;8.31;78.61;98875.53;1780750;80;21042;-80
2021/11/03 06:44:20;;;;;;;29.80;13.72;;;;;;;8.34;78.74;98869.01;1783214;79;21494;-79
2021/11/03 06:46:47;;;;;;;31.62;14.70;;;;;;;8.39;78.49;98862.88;1772288;80;21538;-80
2021/11/03 06:49:14;;;;;;;35.52;14.65;;;;;;;8.44;78.40;98868.88;1773020;80;21012;-79
2021/11/03 06:51:40;;;;;;;29.57;13.95;;;;;;;8.48;78.25;98870.52;1768801;80;20995;-80
2021/11/03 06:54:07;;;;;;;33.50;14.13;;;;;;;8.51;77.54;98867.39;1761495;80;21132;-80
2021/11/03 06:56:34;;;;;;;32.78;15.00;;;;;;;8.55;77.53;98869.06;1762342;80;21008;-80
2021/11/03 06:59:01;;;;;;;47.03;19.48;;;;;;;8.60;77.27;98873.30;1766289;80;20987;-79
2021/11/03 07:01:27;;;;;;;32.85;13.28;;;;;;;8.63;77.29;98877.11;1737531;81;21035;-80
2021/11/03 07:03:56;;;;;;;24.15;11.88;;;;;;;8.68;76.86;98879.17;1761281;80;21075;-80
2021/11/03 07:06:24;;;;;;;27.93;11.97;;;;;;;8.74;77.01;98885.06;1798888;78;21588;-79
2021/11/03 07:08:53;;;;;;;25.37;11.70;;;;;;;8.81;77.20;98875.41;1791929;78;20989;-79
2021/11/03 07:11:20;;;;;;;24.70;11.35;;;;;;;8.88;77.14;98869.67;1784980;78;21009;-80
2021/11/03 07:13:46;;;;;;;24.87;11.05;;;;;;;8.97;77.21;98870.75;1752296;81;21474;-80
2021/11/03 07:16:14;;;;;;;22.35;10.93;;;;;;;9.05;77.13;98874.05;1779869;78;21038;-79
2021/11/03 07:18:41;;;;;;;27.02;10.38;;;;;;;9.12;77.14;98862.63;1781393;78;21038;-80
2021/11/03 07:21:07;;;;;;;21.95;11.55;;;;;;;9.22;76.97;98875.41;1785868;78;21038;-79
2021/11/03 07:23:34;;;;;;;25.65;12.13;;;;;;;9.32;76.64;98875.14;1783507;78;21686;-79
2021/11/03 07:26:01;;;;;;;23.55;11.53;;;;;;;9.42;76.40;98873.63;1752553;80;20998;-79
2021/11/03 07:28:27;;;;;;;23.87;12.00;;;;;;;9.49;76.02;98872.16;1781498;78;21075;-79
2021/11/03 07:30:54;;;;;;;26.37;12.07;;;;;;;9.55;75.66;98876.34;1789251;78;21018;-79
2021/11/03 07:33:21;;;;;;;31.82;14.55;;;;;;;9.58;75.33;98872.36;1796537;78;22294;-80
2021/11/03 07:35:48;;;;;;;31.57;14.28;;;;;;;9.65;75.02;98866.56;1801430;78;21513;-80
2021/11/03 07:38:16;;;;;;;22.70;11.40;;;;;;;9.66;75.07;98860.05;1766214;80;21002;-78
2021/11/03 07:40:48;;;;;;;24.75;12.20;;;;;;;9.76;74.64;98869.30;1772284;80;21014;-78
2021/11/03 07:43:18;;;;;;;21.45;9.60;;;;;;;9.83;74.10;98869.14;1776797;79;21535;-78
2021/11/03 07:45:50;;;;;;;18.85;9.25;;;;;;;9.88;73.86;98871.19;1794337;78;21095;-78
2021/11/03 07:48:17;;;;;;;20.35;9.45;;;;;;;9.96;73.50;98875.73;1794321;79;21003;-79
2021/11/03 07:51:01;;;;;;;20.35;9.43;;;;;;;10.01;73.28;98878.20;1806422;78;20991;-81
2021/11/03 07:53:29;;;;;;;21.27;9.10;;;;;;;10.07;73.42;98881.96;1795547;78;22145;-80
2021/11/03 07:56:00;;;;;;;23.73;10.45;;;;;;;10.16;72.66;98885.14;1795896;78;20989;-80
2021/11/03 07:58:31;;;;;;;18.07;9.63;;;;;;;10.23;72.66;98882.41;1796160;78;21026;-78
2021/11/03 08:00:59;;;;;;;24.50;10.88;;;;;;;10.33;72.85;98883.89;1801602;78;21025;-79
2021/11/03 08:03:26;;;;;;;27.13;11.05;;;;;;;10.40;72.77;98886.70;1762828;79;21499;-78
2021/11/03 08:05:54;;;;;;;19.25;9.93;;;;;;;10.47;72.29;98884.34;1796850;78;21098;-77
2021/11/03 08:08:26;;;;;;;24.30;11.10;;;;;;;10.55;71.55;98887.58;1802154;78;21069;-78
2021/11/03 08:10:54;;;;;;;20.65;10.75;;;;;;;10.64;71.61;98889.51;1770059;80;21014;-77
2021/11/03 08:13:26;;;;;;;23.62;10.18;;;;;;;10.69;70.87;98898.88;1773554;80;21050;-76
2021/11/03 08:15:56;;;;;;;20.08;9.70;;;;;;;10.75;70.71;98901.31;1770641;80;20982;-77
2021/11/03 08:18:27;;;;;;;17.75;9.23;;;;;;;10.82;70.32;98901.97;1770595;80;21043;-78
2021/11/03 08:20:55;;;;;;;21.68;9.90;;;;;;;10.87;70.61;98901.86;1772752;80;21014;-79
2021/11/03 08:23:22;;;;;;;18.37;9.68;;;;;;;10.91;70.24;98897.81;1775678;80;21010;-78
2021/11/03 08:25:49;;;;;;;23.25;11.20;;;;;;;10.95;70.18;98902.48;1776100;80;20996;-78
2021/11/03 08:28:16;;;;;;;19.90;10.45;;;;;;;11.00;69.96;98898.43;1766262;80;21106;-77
2021/11/03 08:30:46;;;;;;;22.22;10.90;;;;;;;11.06;69.87;98900.42;1768909;80;21273;-78
2021/11/03 08:33:18;;;;;;;21.93;10.18;;;;;;;11.11;69.64;98895.06;1773258;79;21013;-79
2021/11/03 08:35:50;;;;;;;22.55;9.50;;;;;;;11.15;69.63;98896.67;1765069;79;21038;-78
2021/11/03 08:38:21;;;;;;;18.73;8.95;;;;;;;11.22;69.71;98893.00;1763106;80;21616;-78
2021/11/03 08:40:49;;;;;;;17.25;8.80;;;;;;;11.29;69.44;98896.25;1796516;78;21027;-76
2021/11/03 08:43:21;;;;;;;20.72;8.80;;;;;;;11.34;69.13;98899.11;1805556;78;21542;-79
2021/11/03 08:45:51;;;;;;;18.20;7.95;;;;;;;11.40;69.25;98901.98;1798582;78;21543;-78
2021/11/03 08:48:20;;;;;;;16.00;7.80;;;;;;;11.49;69.59;98898.22;1797371;78;21065;-78
2021/11/03 08:50:47;;;;;;;16.55;6.97;;;;;;;11.55;69.39;98894.96;1756624;79;21100;-77
2021/11/03 08:53:15;;;;;;;14.45;7.58;;;;;;;11.64;68.83;98893.83;1788253;78;21282;-78
2021/11/03 08:55:51;;;;;;;16.48;8.43;;;;;;;11.71;68.19;98891.41;1798017;78;21030;-80
2021/11/03 08:58:21;;;;;;;16.65;8.70;;;;;;;11.79;68.02;98887.25;1789348;78;21009;-80
2021/11/03 09:00:51;;;;;;;17.62;9.28;;;;;;;11.87;67.16;98885.70;1794027;78;21657;-80
2021/11/03 09:03:18;;;;;;;16.32;8.85;;;;;;;11.93;67.21;98889.42;1795508;78;21017;-80
2021/11/03 09:05:45;;;;;;;22.93;8.13;;;;;;;11.99;66.49;98894.42;1808807;78;21056;-78
2021/11/03 09:08:15;;;;;;;15.93;8.20;;;;;;;12.01;65.93;98896.53;1803632;78;21016;-80
2021/11/03 09:10:47;;;;;;;16.95;8.03;;;;;;;12.06;66.34;98895.93;1796046;78;21011;-79
2021/11/03 09:13:19;;;;;;;16.30;7.92;;;;;;;12.10;65.19;98904.04;1797338;78;21126;-80
2021/11/03 09:15:46;;;;;;;15.93;8.10;;;;;;;12.16;66.19;98901.68;1804528;78;21015;-79
2021/11/03 09:18:15;;;;;;;15.85;8.05;;;;;;;12.21;65.47;98894.99;1795459;78;21432;-78
2021/11/03 09:20:44;;;;;;;23.07;8.23;;;;;;;12.28;65.74;98892.12;1810486;78;21077;-78
2021/11/03 09:23:11;;;;;;;16.35;8.45;;;;;;;12.36;65.35;98887.95;1795219;78;21010;-78
2021/11/03 09:25:39;;;;;;;17.70;8.45;;;;;;;12.40;65.26;98885.63;1807214;78;21366;-79
2021/11/03 09:28:07;;;;;;;21.00;8.85;;;;;;;12.45;63.91;98880.23;1772853;78;21685;-78
2021/11/03 09:30:35;;;;;;;14.35;7.83;;;;;;;12.50;65.09;98877.86;1767614;79;21491;-77
2021/11/03 09:33:05;;;;;;;14.03;7.70;;;;;;;12.60;63.61;98878.38;1776122;79;21610;-76
2021/11/03 09:35:41;;;;;;;15.50;7.50;;;;;;;12.67;64.24;98869.44;1774580;79;21059;-77
2021/11/03 09:38:11;;;;;;;11.85;7.12;;;;;;;12.71;64.33;98876.23;1778240;78;21683;-76
2021/11/03 09:41:07;;;;;;;16.20;7.67;;;;;;;12.78;63.70;98879.45;1771538;78;21039;-77
2021/11/03 09:43:39;;;;;;;14.80;7.12;;;;;;;12.85;64.04;98874.41;1783779;78;21500;-76
2021/11/03 09:46:21;;;;;;;15.20;8.25;;;;;;;12.96;63.54;98879.67;1778328;78;21002;-78
2021/11/03 09:48:55;;;;;;;15.40;7.12;;;;;;;13.03;62.77;98877.20;1778624;78;21007;-78
2021/11/03 09:51:27;;;;;;;17.95;7.92;;;;;;;13.14;61.83;98880.26;1774998;78;21038;-77
2021/11/03 09:53:58;;;;;;;14.87;7.67;;;;;;;13.25;62.94;98868.95;1781640;78;21043;-77
2021/11/03 09:56:36;;;;;;;13.40;7.65;;;;;;;13.41;62.69;98882.71;1771076;78;21019;-76
2021/11/03 09:59:11;;;;;;;13.15;7.22;;;;;;;13.44;62.32;98878.69;1788918;80;21028;-77
2021/11/03 10:01:46;;;;;;;15.25;7.40;;;;;;;13.48;61.79;98873.27;1780369;79;21024;-77
2021/11/03 10:04:48;;;;;;;16.05;7.83;;;;;;;13.53;61.37;98873.10;1781923;78;20987;-78
2021/11/03 10:07:38;;;;;;;14.05;7.45;;;;;;;13.57;60.84;98870.76;1776275;79;21058;-77
2021/11/03 10:10:34;;;;;;;15.40;8.00;;;;;;;13.62;60.50;98875.32;1774044;80;20995;-77
2021/11/03 10:13:04;;;;;;;10.95;6.60;;;;;;;13.63;60.51;98877.03;1771609;80;21042;-77
2021/11/03 10:15:32;;;;;;;14.38;7.08;;;;;;;13.68;61.10;98874.22;1785553;78;20995;-78
2021/11/03 10:18:18;;;;;;;14.00;7.65;;;;;;;13.77;60.91;98872.55;1767924;78;21024;-75
2021/11/03 10:21:02;;;;;;;14.33;7.20;;;;;;;13.84;61.02;98873.13;1785566;78;21002;-75
2021/11/03 10:23:33;;;;;;;16.27;7.72;;;;;;;13.95;60.91;98867.00;1788120;78;21002;-77
2021/11/03 10:26:10;;;;;;;64.67;27.02;;;;;;;14.06;60.63;98862.14;1784708;78;21061;-77
2021/11/03 10:28:42;;;;;;;24.90;11.97;;;;;;;14.19;59.51;98851.19;1771036;79;20991;-78
2021/11/03 10:31:29;;;;;;;16.60;8.88;;;;;;;14.30;60.55;98849.80;1785322;80;21529;-77
2021/11/03 10:34:22;;;;;;;45.73;23.70;;;;;;;14.41;60.01;98844.55;1787535;78;21004;-77
2021/11/03 10:37:18;;;;;;;22.15;11.33;;;;;;;14.51;59.29;98844.05;1800972;79;21081;-77
2021/11/03 10:40:07;;;;;;;16.05;8.35;;;;;;;14.66;59.93;98839.94;1788085;78;21007;-78
2021/11/03 10:42:44;;;;;;;14.33;7.42;;;;;;;14.79;59.84;98844.13;1774100;79;21035;-75
2021/11/03 10:45:25;;;;;;;13.38;7.12;;;;;;;14.91;59.18;98848.78;1781945;80;20999;-77
2021/11/03 10:48:14;;;;;;;15.38;7.33;;;;;;;15.03;58.55;98853.06;1787057;78;21034;-76
2021/11/03 10:50:58;;;;;;;15.95;7.65;;;;;;;15.16;58.39;98848.95;1792489;78;20988;-77
2021/11/03 10:53:38;;;;;;;13.72;7.20;;;;;;;15.32;57.73;98854.31;1773344;79;21499;-77
2021/11/03 10:56:31;;;;;;;13.20;7.35;;;;;;;15.44;58.04;98843.70;1780091;79;20994;-77
2021/11/03 10:59:06;;;;;;;11.63;6.53;;;;;;;15.54;57.37;98844.94;1783908;78;21511;-76
2021/11/03 11:01:39;;;;;;;15.53;7.37;;;;;;;15.66;55.71;98845.63;1800571;79;20999;-77
2021/11/03 11:04:16;;;;;;;12.80;6.83;;;;;;;15.75;55.84;98844.81;1785604;78;20968;-76
2021/11/03 11:06:51;;;;;;;12.47;6.75;;;;;;;15.82;56.42;98848.36;1785734;78;21081;-77
2021/11/03 11:09:40;;;;;;;13.95;7.20;;;;;;;15.93;55.45;98843.03;1787292;78;21010;-75
2021/11/03 11:12:24;;;;;;;19.80;7.97;;;;;;;16.03;54.43;98841.63;1802690;79;20999;-77
2021/11/03 11:14:55;;;;;;;25.70;12.35;;;;;;;16.17;54.95;98839.61;1782518;78;21027;-77
2021/11/03 11:17:35;;;;;;;19.07;9.73;;;;;;;16.29;53.63;98836.34;1761850;78;21562;-77
2021/11/03 11:20:10;;;;;;;18.42;8.35;;;;;;;16.37;54.38;98828.91;1778548;78;20995;-74
2021/11/03 11:22:58;;;;;;;23.98;11.95;;;;;;;16.44;50.76;98822.41;1783214;79;21470;-76
2021/11/03 11:25:45;;;;;;;37.55;16.57;;;;;;;16.55;53.34;98813.11;1788756;79;21559;-76
2021/11/03 11:28:39;;;;;;;22.82;11.10;;;;;;;16.78;53.42;98812.71;1793862;78;21490;-77
2021/11/03 11:31:17;;;;;;;15.30;7.67;;;;;;;17.15;53.31;98820.34;1766764;78;20987;-78
2021/11/03 11:34:07;;;;;;;9.65;5.75;;;;;;;18.00;51.33;98807.11;1808188;78;21581;-75
2021/11/03 11:37:14;;;;;;;12.20;6.97;;;;;;;18.83;49.99;98800.23;1727995;78;21035;-77
2021/11/03 11:39:46;;;;;;;11.57;6.95;;;;;;;19.82;49.20;98812.28;1799991;78;20994;-77
2021/11/03 11:42:20;;;;;;;11.43;6.57;;;;;;;20.91;48.20;98810.44;1772974;78;21563;-78